Time;durP1;ratioP1;P1;durP2;ratioP2;P2;SDS_P1;SDS_P2;PMS_P1;PMS_P2;Temp;Humidity;BMP_temperature;BMP_pressure;BME280_temperature;BME280_humidity;BME280_pressure;Samples;Min_cycle;Max_cycle;Signal;HPM_P1;HPM_P2
2021/09/12 00:00:54;;;;;;;20.63;6.40;;;20.20;99.90;;;20.62;71.34;101669.91;5113424;28;20104;-71
2021/09/12 00:03:22;;;;;;;13.90;6.57;;;20.20;99.90;;;20.59;71.35;101670.00;5095330;28;20065;-71
2021/09/12 00:05:52;;;;;;;14.38;6.20;;;20.20;99.90;;;20.57;71.49;101665.59;5113184;28;20047;-71
2021/09/12 00:08:20;;;;;;;14.23;6.23;;;20.10;99.90;;;20.52;71.74;101667.53;5113319;28;20477;-71
2021/09/12 00:10:50;;;;;;;11.52;5.78;;;20.10;99.90;;;20.49;71.64;101663.16;5113158;28;20039;-71
2021/09/12 00:13:18;;;;;;;11.65;6.05;;;20.10;99.90;;;20.50;71.74;101654.16;5113449;28;20042;-71
2021/09/12 00:15:47;;;;;;;12.82;5.80;;;20.10;99.90;;;20.53;71.64;101661.25;5094887;28;20100;-74
2021/09/12 00:18:15;;;;;;;12.90;6.18;;;20.10;99.90;;;20.53;71.81;101659.44;5113025;28;20053;-73
2021/09/12 00:20:43;;;;;;;13.85;5.85;;;20.10;99.90;;;20.36;71.55;101629.53;5113100;28;20066;-74
2021/09/12 00:23:13;;;;;;;16.40;6.72;;;20.10;99.90;;;20.52;71.66;101657.69;5094986;28;20040;-73
2021/09/12 00:25:43;;;;;;;12.60;5.97;;;20.10;99.90;;;20.49;71.82;101657.78;5113037;28;20067;-72
2021/09/12 00:28:11;;;;;;;15.30;6.82;;;20.10;99.90;;;20.45;71.77;101650.75;5113044;28;20492;-72
2021/09/12 00:30:40;;;;;;;12.43;6.70;;;20.10;99.90;;;20.37;71.71;101641.16;5113324;28;20445;-72
2021/09/12 00:33:08;;;;;;;12.20;6.80;;;20.00;99.90;;;20.35;71.86;101649.28;5113304;28;20122;-72
2021/09/12 00:35:36;;;;;;;10.13;6.47;;;19.90;99.90;;;20.31;72.02;101644.03;5113319;28;20043;-72
2021/09/12 00:38:05;;;;;;;15.82;6.60;;;19.90;99.90;;;20.27;72.00;101637.91;5113176;28;20048;-72
2021/09/12 00:40:35;;;;;;;12.80;6.65;;;19.90;99.90;;;20.23;71.99;101633.53;5113222;28;20034;-72
2021/09/12 00:43:03;;;;;;;10.80;6.50;;;19.80;99.90;;;20.14;72.19;101639.19;5113190;28;20075;-72
2021/09/12 00:45:32;;;;;;;15.82;7.03;;;19.70;99.90;;;20.08;72.19;101644.75;5114614;28;20069;-72
2021/09/12 00:48:00;;;;;;;16.30;7.05;;;19.70;99.90;;;20.00;72.31;101632.47;5116837;28;20071;-72
2021/09/12 00:50:29;;;;;;;17.38;7.53;;;19.60;99.90;;;19.98;72.24;101634.31;5116509;28;20047;-72
2021/09/12 00:53:03;;;;;;;14.18;7.05;;;19.60;99.90;;;19.93;72.29;101649.72;5116924;28;20118;-72
2021/09/12 00:55:34;;;;;;;14.35;7.70;;;19.50;99.90;;;19.89;72.20;101638.19;5116620;28;20051;-72
2021/09/12 00:58:03;;;;;;;12.00;7.90;;;19.50;99.90;;;19.70;72.17;101613.66;5116398;28;20093;-72
2021/09/12 01:00:32;;;;;;;12.43;8.10;;;19.40;99.90;;;19.81;72.08;101645.59;5116590;28;20047;-72
2021/09/12 01:03:00;;;;;;;12.55;6.97;;;19.40;99.90;;;19.75;72.13;101641.28;5116849;28;20052;-72
2021/09/12 01:05:29;;;;;;;11.43;7.30;;;19.40;99.90;;;19.73;71.95;101643.13;5116164;28;20035;-72
2021/09/12 01:07:57;;;;;;;14.43;7.13;;;19.30;99.90;;;19.72;71.94;101638.66;5116493;28;20119;-71
2021/09/12 01:10:26;;;;;;;13.70;7.57;;;19.30;99.90;;;19.69;71.97;101640.56;5116411;28;20046;-72
2021/09/12 01:12:56;;;;;;;10.75;6.68;;;19.30;99.90;;;19.61;72.04;101631.84;5116647;28;20062;-72
2021/09/12 01:15:24;;;;;;;14.53;7.10;;;19.20;99.90;;;19.62;72.09;101634.53;5116060;28;20071;-72
2021/09/12 01:17:52;;;;;;;16.90;7.55;;;19.20;99.90;;;19.58;72.15;101637.34;5115927;28;20067;-72
2021/09/12 01:20:21;;;;;;;16.95;7.35;;;19.20;99.90;;;19.54;72.47;101641.03;5116137;28;20048;-72
2021/09/12 01:22:50;;;;;;;16.25;7.55;;;19.10;99.90;;;19.35;72.72;101602.22;5097806;28;20540;-72
2021/09/12 01:25:20;;;;;;;13.52;7.50;;;19.10;99.90;;;19.47;72.99;101628.72;5115771;28;20040;-72
2021/09/12 01:27:49;;;;;;;16.63;7.82;;;19.10;99.90;;;19.47;72.97;101634.09;5116069;28;20044;-72
2021/09/12 01:30:17;;;;;;;15.68;7.90;;;19.10;99.90;;;19.46;73.33;101630.50;5116055;28;20454;-72
2021/09/12 01:32:45;;;;;;;14.68;7.65;;;19.00;99.90;;;19.45;73.22;101619.84;5115709;28;20048;-71
2021/09/12 01:35:14;;;;;;;12.50;7.72;;;19.10;99.90;;;19.41;73.38;101628.88;5097600;28;20044;-72
2021/09/12 01:37:42;;;;;;;16.65;8.73;;;19.00;99.90;;;19.39;73.49;101637.00;5115848;28;20101;-72
2021/09/12 01:40:13;;;;;;;21.27;9.25;;;19.00;99.90;;;19.34;73.64;101622.81;5097473;28;20035;-72
2021/09/12 01:42:42;;;;;;;;;;;19.00;99.90;;;19.29;74.00;101631.88;5116097;28;20113;-72
2021/09/12 01:45:11;;;;;;;20.67;10.32;;;19.00;99.90;;;19.34;73.99;101630.84;5115509;28;20022;-72
2021/09/12 01:47:45;;;;;;;18.10;9.98;;;18.90;99.90;;;19.33;73.99;101630.91;5097324;28;20051;-72
2021/09/12 01:50:16;;;;;;;19.48;9.93;;;18.90;99.90;;;19.33;74.01;101633.59;5115390;28;20458;-72
2021/09/12 01:52:45;;;;;;;19.92;9.77;;;18.90;99.90;;;19.31;74.18;101640.75;5115529;28;20104;-72
2021/09/12 01:55:14;;;;;;;19.80;9.93;;;18.90;99.90;;;19.29;74.52;101631.88;5115768;28;20438;-73
2021/09/12 01:57:43;;;;;;;17.23;9.90;;;18.90;99.90;;;19.31;74.47;101630.03;5115542;28;20100;-72
2021/09/12 02:00:13;;;;;;;16.03;10.07;;;18.90;99.90;;;19.08;74.46;101586.88;5115217;28;20035;-72
2021/09/12 02:02:41;;;;;;;17.08;10.18;;;18.90;99.90;;;19.27;74.46;101625.66;5115314;28;20659;-72
2021/09/12 02:05:11;;;;;;;19.13;10.75;;;18.90;99.90;;;19.25;74.45;101625.72;5115535;28;20047;-73
2021/09/12 02:07:39;;;;;;;23.70;11.15;;;18.80;99.90;;;19.23;74.65;101626.69;5115099;28;20075;-72
2021/09/12 02:10:09;;;;;;;13.80;10.05;;;18.90;99.90;;;19.21;74.59;101621.38;5115290;28;20134;-72
2021/09/12 02:12:37;;;;;;;19.80;10.65;;;18.80;99.90;;;19.23;74.69;101632.03;5115213;28;20047;-72
2021/09/12 02:15:08;;;;;;;23.55;11.40;;;18.80;99.90;;;19.22;74.59;101630.31;5115144;28;20078;-72
2021/09/12 02:17:37;;;;;;;20.63;10.57;;;18.80;99.90;;;19.17;74.61;101624.16;5114916;28;20101;-72
2021/09/12 02:20:07;;;;;;;19.83;10.43;;;18.80;99.90;;;19.14;74.69;101637.69;5115046;28;20473;-72
2021/09/12 02:22:36;;;;;;;18.98;10.95;;;18.70;99.90;;;19.15;74.75;101632.25;5114772;28;20040;-72
2021/09/12 02:25:05;;;;;;;18.67;10.65;;;18.70;99.90;;;19.16;74.65;101631.34;5114753;28;20131;-72
2021/09/12 02:27:34;;;;;;;20.05;11.52;;;18.70;99.90;;;19.12;74.87;101624.31;5115209;28;20070;-72
2021/09/12 02:30:02;;;;;;;21.33;11.50;;;18.80;99.90;;;19.00;74.81;101634.47;5114570;28;20127;-72
2021/09/12 02:32:32;;;;;;;19.65;11.90;;;18.70;99.90;;;19.06;75.28;101632.53;5114693;28;20051;-72
2021/09/12 02:35:00;;;;;;;21.87;11.80;;;18.70;99.90;;;19.03;75.34;101629.03;5115081;28;20075;-72
2021/09/12 02:37:28;;;;;;;24.75;12.07;;;18.60;99.90;;;19.01;75.27;101629.06;5114492;28;20508;-72
2021/09/12 02:39:57;;;;;;;18.58;11.75;;;18.60;99.90;;;19.03;75.07;101631.72;5114363;28;20043;-72
2021/09/12 02:42:25;;;;;;;23.05;12.45;;;18.60;99.90;;;18.98;75.31;101629.16;5114341;28;20040;-72
2021/09/12 02:44:54;;;;;;;19.48;11.27;;;18.60;99.90;;;19.01;75.51;101615.66;5114385;28;20652;-72
2021/09/12 02:47:22;;;;;;;24.13;11.70;;;18.60;99.90;;;19.02;75.68;101622.78;5114438;28;20460;-72
2021/09/12 02:49:52;;;;;;;23.73;12.23;;;18.60;99.90;;;19.00;75.91;101621.97;5114461;28;20043;-72
2021/09/12 02:52:20;;;;;;;25.17;12.80;;;18.60;99.90;;;19.01;76.14;101628.22;5114182;28;20044;-72
2021/09/12 02:54:48;;;;;;;21.77;11.60;;;18.60;99.90;;;19.05;76.22;101621.84;5114414;28;20047;-72
2021/09/12 02:57:17;;;;;;;21.80;13.70;;;18.60;99.90;;;19.07;76.28;101623.53;5114079;28;20043;-72
2021/09/12 02:59:45;;;;;;;23.98;13.02;;;18.60;99.90;;;19.14;76.22;101621.59;5114369;28;20085;-72
2021/09/12 03:02:13;;;;;;;24.25;13.20;;;18.70;99.90;;;19.15;76.40;101629.56;5113981;28;20089;-72
2021/09/12 03:04:42;;;;;;;22.55;13.00;;;18.70;99.90;;;19.18;76.29;101628.63;5114355;28;20040;-72
2021/09/12 03:07:12;;;;;;;24.45;12.90;;;18.70;99.90;;;19.20;76.36;101630.31;5113715;28;20042;-72
2021/09/12 03:09:40;;;;;;;19.90;13.60;;;18.80;99.90;;;19.11;76.25;101608.22;5095911;28;20579;-72
2021/09/12 03:12:09;;;;;;;22.08;12.25;;;18.80;99.90;;;19.30;76.22;101633.66;5114029;28;20054;-72
2021/09/12 03:14:38;;;;;;;20.83;13.63;;;18.90;99.90;;;19.14;76.37;101602.81;5114071;28;20047;-72
2021/09/12 03:17:06;;;;;;;20.73;13.00;;;18.90;99.90;;;19.31;76.52;101628.25;5114065;28;20043;-72
2021/09/12 03:19:34;;;;;;;24.80;14.50;;;18.90;99.90;;;19.31;76.43;101632.72;5095753;28;20471;-72
2021/09/12 03:22:03;;;;;;;20.35;12.70;;;18.90;99.90;;;19.33;76.58;101628.22;5114224;28;20051;-72
2021/09/12 03:24:33;;;;;;;26.90;14.90;;;18.90;99.90;;;19.34;76.64;101621.91;5113641;28;20124;-72
2021/09/12 03:27:01;;;;;;;26.83;14.73;;;18.90;99.90;;;19.39;76.68;101622.69;5113872;28;20090;-72
2021/09/12 03:29:29;;;;;;;28.63;14.52;;;18.90;99.90;;;19.38;76.81;101618.22;5095632;28;20047;-72
2021/09/12 03:31:58;;;;;;;21.85;13.55;;;18.90;99.90;;;18.78;76.80;101509.03;5113585;28;20047;-72
2021/09/12 03:34:27;;;;;;;23.40;14.15;;;19.00;99.90;;;19.42;76.96;101619.91;5113805;28;20088;-72
2021/09/12 03:36:55;;;;;;;23.95;14.45;;;19.00;99.90;;;19.41;77.10;101615.47;5113824;28;20047;-72
2021/09/12 03:39:24;;;;;;;23.90;15.55;;;19.00;99.90;;;19.33;77.33;101622.84;5114082;28;20054;-72
2021/09/12 03:41:53;;;;;;;29.20;15.27;;;19.00;99.90;;;19.42;77.52;101620.78;5113779;28;20139;-72
2021/09/12 03:44:23;;;;;;;30.80;16.17;;;19.00;99.90;;;19.36;77.48;101612.03;5113479;28;20063;-72
2021/09/12 03:46:51;;;;;;;27.75;15.35;;;19.00;99.90;;;19.44;77.59;101628.78;5113893;28;20128;-72
2021/09/12 03:49:19;;;;;;;31.38;15.85;;;19.00;99.90;;;19.48;77.65;101627.78;5113704;28;20097;-72
2021/09/12 03:51:48;;;;;;;26.42;15.95;;;19.10;99.90;;;19.47;77.65;101631.41;5113641;28;20052;-72
2021/09/12 03:54:16;;;;;;;29.42;17.15;;;19.10;99.90;;;19.47;77.75;101632.25;5113494;28;20047;-72
2021/09/12 03:56:45;;;;;;;32.80;17.00;;;19.10;99.90;;;19.48;78.00;101633.16;5113623;28;20044;-71
2021/09/12 03:59:14;;;;;;;30.85;17.17;;;19.10;99.90;;;19.49;78.03;101630.41;5113607;28;20093;-72
2021/09/12 04:01:43;;;;;;;37.17;17.47;;;19.10;99.90;;;19.46;78.12;101624.25;5113377;28;20066;-72
2021/09/12 04:04:12;;;;;;;30.65;17.55;;;19.10;99.90;;;19.52;77.97;101632.13;5113255;28;20044;-72
2021/09/12 04:06:40;;;;;;;37.65;18.40;;;19.10;99.90;;;19.41;78.37;101618.16;5113726;28;20134;-72
2021/09/12 04:09:08;;;;;;;30.13;16.75;;;19.00;99.90;;;19.42;78.31;101627.94;5113207;28;20492;-72
2021/09/12 04:11:37;;;;;;;26.90;16.60;;;19.00;99.90;;;19.38;78.21;101623.59;5095278;28;20130;-72
2021/09/12 04:14:05;;;;;;;32.20;17.25;;;19.00;99.90;;;19.39;78.29;101617.31;5113009;28;20044;-72
2021/09/12 04:16:35;;;;;;;28.70;17.17;;;18.90;99.90;;;19.35;78.53;101621.91;5113441;28;20046;-72
2021/09/12 04:19:04;;;;;;;27.20;16.73;;;18.90;99.90;;;19.21;78.49;101599.00;5113458;28;20048;-72
2021/09/12 04:21:32;;;;;;;33.22;17.27;;;18.90;99.90;;;19.32;78.42;101618.34;5117278;28;20472;-72
2021/09/12 04:24:01;;;;;;;28.95;18.02;;;18.90;99.90;;;19.20;78.38;101600.81;5117271;28;20480;-72
2021/09/12 04:26:29;;;;;;;29.27;17.65;;;18.90;99.90;;;19.37;78.54;101616.47;5117024;28;20504;-72
2021/09/12 04:28:57;;;;;;;29.33;17.75;;;18.90;99.90;;;19.37;78.46;101621.84;5116888;28;20046;-72
2021/09/12 04:31:26;;;;;;;28.95;18.17;;;19.00;99.90;;;19.37;78.52;101617.38;5117168;28;20119;-72
2021/09/12 04:33:55;;;;;;;27.90;17.80;;;19.00;99.90;;;19.40;78.33;101622.63;5116882;28;20074;-72
2021/09/12 04:36:24;;;;;;;30.43;17.37;;;19.00;99.90;;;19.38;78.27;101618.22;5117078;28;20089;-72
2021/09/12 04:38:52;;;;;;;29.20;16.95;;;19.00;99.90;;;19.38;78.37;101612.84;5117042;28;20122;-72
2021/09/12 04:41:20;;;;;;;31.02;18.13;;;18.90;99.90;;;19.35;78.45;101613.84;5117290;28;20048;-72
2021/09/12 04:43:49;;;;;;;32.20;17.70;;;18.90;99.90;;;19.31;78.56;101617.50;5116785;28;20567;-72
2021/09/12 04:46:17;;;;;;;36.72;18.58;;;18.90;99.90;;;19.31;78.92;101624.66;5116139;28;20060;-72
2021/09/12 04:48:46;;;;;;;29.90;17.55;;;18.90;99.90;;;19.30;79.12;101621.09;5098815;28;20396;-72
2021/09/12 04:51:25;;;;;;;34.80;18.35;;;18.90;99.90;;;19.29;79.31;101635.44;5116586;28;20130;-72
2021/09/12 04:53:55;;;;;;;31.65;18.90;;;18.90;99.90;;;19.35;79.40;101616.53;5116526;28;20130;-72
2021/09/12 04:56:24;;;;;;;36.35;18.65;;;18.90;99.90;;;19.32;79.70;101613.00;5116570;28;20047;-73
2021/09/12 04:58:52;;;;;;;32.00;18.52;;;18.90;99.90;;;19.40;79.71;101622.63;5116928;28;20086;-72
2021/09/12 05:01:21;;;;;;;29.38;18.20;;;19.00;99.90;;;19.43;79.74;101617.19;5116318;28;20043;-72
2021/09/12 05:03:51;;;;;;;31.67;18.45;;;19.00;99.90;;;19.36;79.89;101623.66;5116441;28;20048;-72
2021/09/12 05:06:20;;;;;;;34.90;19.88;;;19.00;99.90;;;19.37;79.93;101624.53;5116638;28;20035;-72
2021/09/12 05:08:50;;;;;;;37.58;19.90;;;19.00;99.90;;;19.38;79.98;101626.28;5116385;28;20415;-72
2021/09/12 05:11:18;;;;;;;30.90;19.25;;;19.00;99.90;;;19.34;80.00;101628.16;5116847;28;20039;-72
2021/09/12 05:13:47;;;;;;;36.63;19.00;;;19.00;99.90;;;19.22;79.86;101607.00;5116133;28;20550;-72
2021/09/12 05:16:15;;;;;;;30.08;18.27;;;18.90;99.90;;;19.29;79.95;101629.19;5116434;28;20397;-72
2021/09/12 05:18:44;;;;;;;32.65;19.10;;;18.90;99.90;;;19.27;79.62;101625.66;5116023;28;20039;-72
2021/09/12 05:21:12;;;;;;;29.63;17.70;;;18.90;99.90;;;19.24;79.68;101632.00;5115860;28;20047;-72
2021/09/12 05:23:41;;;;;;;29.50;17.85;;;18.80;99.90;;;19.22;79.50;101632.97;5115909;28;20118;-72
2021/09/12 05:26:11;;;;;;;28.63;17.70;;;18.80;99.90;;;19.20;79.43;101624.94;5116140;28;20045;-72
2021/09/12 05:28:39;;;;;;;27.23;17.50;;;18.80;99.90;;;19.19;79.18;101628.56;5115757;28;20043;-72
2021/09/12 05:31:07;;;;;;;28.05;17.88;;;18.80;99.90;;;19.19;79.08;101635.72;5115568;28;20312;-72
2021/09/12 05:33:36;;;;;;;29.13;16.95;;;18.80;99.90;;;19.21;78.97;101636.56;5115713;28;20096;-72
2021/09/12 05:36:05;;;;;;;30.80;17.83;;;18.80;99.90;;;19.22;78.95;101635.66;5116266;28;20039;-72
2021/09/12 05:38:33;;;;;;;32.88;17.48;;;18.80;99.90;;;18.98;78.92;101604.13;5115875;28;20044;-72
2021/09/12 05:41:02;;;;;;;25.33;16.90;;;18.80;99.90;;;19.17;78.90;101634.88;5115561;28;20043;-72
2021/09/12 05:43:31;;;;;;;26.77;16.58;;;18.70;99.90;;;19.19;78.64;101635.72;5115758;28;20031;-72
2021/09/12 05:46:00;;;;;;;26.80;17.20;;;18.70;99.90;;;19.20;78.69;101641.03;5115860;28;20093;-74
2021/09/12 05:48:28;;;;;;;30.40;17.60;;;18.80;99.90;;;19.21;78.60;101639.25;5115681;28;20043;-72
2021/09/12 05:50:57;;;;;;;30.02;17.50;;;18.80;99.90;;;19.22;78.59;101636.53;5115364;28;20048;-73
2021/09/12 05:53:27;;;;;;;31.38;17.70;;;18.80;99.90;;;19.24;78.81;101647.25;5115270;28;20050;-73
2021/09/12 05:55:55;;;;;;;34.03;19.23;;;18.80;99.90;;;19.28;78.61;101648.91;5115877;28;20100;-73
2021/09/12 05:58:24;;;;;;;28.10;17.40;;;18.90;99.90;;;19.25;78.86;101638.25;5115215;28;20119;-73
2021/09/12 06:00:54;;;;;;;33.00;18.08;;;18.90;99.90;;;19.26;79.12;101645.41;5115101;28;20074;-73
2021/09/12 06:03:22;;;;;;;26.58;18.27;;;18.90;99.90;;;19.31;79.31;101644.34;5115829;28;20040;-73
2021/09/12 06:05:51;;;;;;;35.65;19.30;;;18.90;99.90;;;19.39;79.32;101646.84;5115048;28;20042;-73
2021/09/12 06:08:19;;;;;;;33.78;19.92;;;18.90;99.90;;;19.41;79.62;101650.34;5114906;28;20092;-73
2021/09/12 06:10:48;;;;;;;32.55;19.90;;;19.00;99.90;;;19.48;79.83;101646.56;5115507;28;20071;-73
2021/09/12 06:13:16;;;;;;;36.65;20.27;;;19.00;99.90;;;19.52;79.96;101643.75;5115237;28;20081;-73
2021/09/12 06:15:44;;;;;;;34.03;20.17;;;19.10;99.90;;;19.58;79.88;101650.75;5115194;28;20042;-73
2021/09/12 06:18:14;;;;;;;35.05;20.75;;;19.20;99.90;;;19.64;79.77;101645.22;5115098;28;20043;-73
2021/09/12 06:20:42;;;;;;;34.08;19.92;;;19.20;99.90;;;19.71;79.76;101650.34;5114804;28;20027;-73
2021/09/12 06:23:11;;;;;;;39.78;21.83;;;19.30;99.90;;;19.74;79.75;101650.25;5114712;28;20097;-73
2021/09/12 06:25:39;;;;;;;44.60;23.00;;;19.30;99.90;;;19.66;80.09;101651.41;5114606;28;20067;-73
2021/09/12 06:28:07;;;;;;;33.28;21.00;;;19.30;99.90;;;19.73;80.12;101639.56;5114511;28;20063;-73
2021/09/12 06:30:36;;;;;;;44.28;23.88;;;19.30;99.90;;;19.74;80.50;101654.75;5114752;28;20047;-73
2021/09/12 06:33:04;;;;;;;40.83;22.67;;;19.30;99.90;;;19.59;80.52;101631.03;5114594;28;20096;-73
2021/09/12 06:35:34;;;;;;;45.28;25.60;;;19.30;99.90;;;19.71;80.87;101654.84;5096375;28;20126;-73
2021/09/12 06:38:02;;;;;;;48.42;24.02;;;19.30;99.90;;;19.71;81.07;101654.84;5114432;28;20508;-73
2021/09/12 06:40:31;;;;;;;45.90;24.45;;;19.30;99.90;;;19.64;81.50;101658.63;5114522;28;20074;-73
2021/09/12 06:43:01;;;;;;;48.42;25.20;;;19.30;99.90;;;19.68;81.31;101633.47;5114138;28;20067;-73
2021/09/12 06:45:30;;;;;;;47.70;25.05;;;19.30;99.90;;;19.85;81.31;101659.78;5114478;28;20079;-73
2021/09/12 06:47:58;;;;;;;55.80;27.08;;;19.40;99.90;;;19.86;81.14;101656.19;5114019;28;20401;-73
2021/09/12 06:50:29;;;;;;;48.85;26.83;;;19.50;99.90;;;19.81;81.23;101667.06;5114223;28;20527;-73
2021/09/12 06:52:58;;;;;;;42.35;24.77;;;19.40;99.90;;;19.82;81.31;101662.59;5114273;28;20054;-73
2021/09/12 06:55:27;;;;;;;50.00;27.07;;;19.40;99.90;;;19.84;81.55;101661.59;5114143;28;20093;-73
2021/09/12 06:57:55;;;;;;;50.50;26.70;;;19.50;99.90;;;19.79;81.54;101663.53;5115568;28;20317;-73
2021/09/12 07:00:24;;;;;;;46.25;26.23;;;19.40;99.90;;;19.84;81.70;101668.78;5114573;28;20090;-73
2021/09/12 07:02:55;;;;;;;47.55;25.85;;;19.40;99.90;;;19.83;81.43;101662.53;5114073;28;20130;-73
2021/09/12 07:05:24;;;;;;;50.80;26.17;;;19.50;99.90;;;19.88;81.48;101676.69;5113950;28;20039;-73
2021/09/12 07:07:53;;;;;;;49.92;27.75;;;19.50;99.90;;;19.87;81.54;101676.75;5095806;28;20529;-72
2021/09/12 07:10:23;;;;;;;52.58;27.60;;;19.50;99.90;;;19.64;81.68;101637.16;5114250;28;20093;-72
2021/09/12 07:12:51;;;;;;;60.17;29.13;;;19.50;99.90;;;19.89;81.67;101680.25;5114106;28;20039;-72
2021/09/12 07:15:20;;;;;;;51.65;29.00;;;19.50;99.90;;;19.88;82.00;101683.88;5113960;28;20047;-72
2021/09/12 07:17:49;;;;;;;54.25;28.20;;;19.50;99.90;;;19.88;82.13;101670.47;5114157;28;20096;-73
2021/09/12 07:20:17;;;;;;;60.53;29.02;;;19.50;99.90;;;19.97;82.06;101679.13;5113838;28;20048;-72
2021/09/12 07:22:47;;;;;;;50.72;28.95;;;19.50;99.90;;;19.96;82.02;101679.13;5113632;28;20089;-73
2021/09/12 07:25:16;;;;;;;52.33;30.90;;;19.60;99.90;;;19.95;82.34;101680.97;5095636;28;20138;-73
2021/09/12 07:27:45;;;;;;;52.95;28.85;;;19.50;99.90;;;20.01;82.26;101675.41;5113757;28;20047;-73
2021/09/12 07:30:15;;;;;;;52.27;27.87;;;19.60;99.90;;;20.00;82.26;101683.50;5113574;28;20039;-73
2021/09/12 07:32:44;;;;;;;54.10;28.90;;;19.60;99.90;;;20.06;81.98;101678.84;5114081;28;20127;-73
2021/09/12 07:35:13;;;;;;;55.58;29.85;;;19.70;99.90;;;20.02;81.90;101666.41;5113332;28;20040;-73
2021/09/12 07:37:42;;;;;;;45.63;27.88;;;19.70;99.90;;;20.14;81.75;101682.16;5114059;28;20123;-74
2021/09/12 07:40:12;;;;;;;55.35;29.00;;;19.70;99.90;;;20.22;81.76;101696.28;5113335;28;20583;-68
2021/09/12 07:42:42;;;;;;;50.58;29.05;;;19.80;99.90;;;20.29;81.69;101687.09;5113766;28;20073;-68
2021/09/12 07:45:12;;;;;;;54.08;30.13;;;19.90;99.90;;;20.36;81.46;101694.03;5112928;28;20558;-68
2021/09/12 07:47:40;;;;;;;58.45;31.42;;;19.90;99.90;;;20.43;81.34;101690.25;5113642;28;20113;-68
2021/09/12 07:50:10;;;;;;;58.80;34.17;;;20.00;99.90;;;20.55;81.22;101697.91;5113266;28;20078;-68
2021/09/12 07:52:42;;;;;;;66.03;36.27;;;20.10;99.90;;;20.50;80.92;101675.66;5113476;28;20164;-68
2021/09/12 07:55:12;;;;;;;54.17;32.05;;;20.30;99.90;;;20.77;81.01;101702.59;5117318;28;20309;-68
2021/09/12 07:57:40;;;;;;;54.90;30.23;;;20.40;99.90;;;20.89;80.76;101702.16;5117809;28;20130;-66
2021/09/12 08:00:12;;;;;;;51.33;28.63;;;20.50;99.90;;;20.90;80.13;101701.25;5117779;28;20571;-70
2021/09/12 08:02:42;;;;;;;47.50;28.55;;;20.50;99.90;;;21.05;79.85;101708.81;5117361;28;20035;-68
2021/09/12 08:05:11;;;;;;;51.72;28.08;;;20.70;99.90;;;21.10;79.44;101712.25;5117378;28;20504;-69
2021/09/12 08:07:40;;;;;;;47.38;28.17;;;20.70;99.90;;;21.06;79.05;101711.47;5117505;28;20043;-67
2021/09/12 08:10:10;;;;;;;46.75;26.33;;;20.70;99.90;;;21.07;79.16;101715.03;5117424;28;20071;-69
2021/09/12 08:12:38;;;;;;;43.65;25.80;;;20.70;99.90;;;21.14;79.08;101720.16;5117156;28;20451;-69
2021/09/12 08:15:08;;;;;;;48.47;26.13;;;20.70;99.90;;;21.20;78.79;101721.75;5117225;28;20039;-68
2021/09/12 08:17:38;;;;;;;45.45;26.33;;;20.80;99.90;;;21.24;78.61;101707.25;5117108;28;20051;-68
2021/09/12 08:20:08;;;;;;;45.13;25.60;;;20.90;99.90;;;21.33;78.36;101720.41;5117633;28;20393;-67
2021/09/12 08:22:37;;;;;;;43.15;26.17;;;20.90;99.90;;;21.41;78.30;101718.31;5117184;28;20057;-67
2021/09/12 08:25:07;;;;;;;46.13;26.40;;;21.00;99.90;;;21.51;78.35;101717.06;5117541;28;20039;-68
2021/09/12 08:27:35;;;;;;;46.05;26.52;;;21.10;99.90;;;21.73;78.17;101728.81;5117005;28;20065;-69
2021/09/12 08:30:05;;;;;;;44.47;26.50;;;21.30;99.90;;;21.92;78.12;101729.94;5117114;28;20040;-70
2021/09/12 08:32:33;;;;;;;41.22;26.33;;;21.50;99.90;;;22.09;77.26;101737.34;5116854;28;20046;-71
2021/09/12 08:35:04;;;;;;;42.03;24.85;;;21.70;99.90;;;22.18;76.07;101737.88;5116756;28;20123;-70
2021/09/12 08:37:32;;;;;;;47.25;26.30;;;21.80;99.90;;;22.23;75.20;101738.59;5116309;28;20044;-69
2021/09/12 08:40:01;;;;;;;40.03;25.30;;;21.90;99.90;;;22.39;75.26;101746.97;5098536;28;20138;-67
2021/09/12 08:42:30;;;;;;;49.97;28.88;;;22.00;99.90;;;22.49;74.70;101743.00;5117159;28;20093;-73
2021/09/12 08:44:59;;;;;;;42.20;25.58;;;22.10;99.90;;;22.52;74.11;101741.97;5116419;28;20451;-72
2021/09/12 08:47:28;;;;;;;42.85;26.17;;;22.10;99.90;;;22.47;73.79;101736.78;5116443;28;20063;-70
2021/09/12 08:49:56;;;;;;;35.97;24.63;;;22.20;99.90;;;22.56;73.20;101743.59;5116432;28;20047;-70
2021/09/12 08:52:26;;;;;;;38.63;25.67;;;22.20;99.90;;;22.53;72.95;101723.03;5116686;28;20067;-74
2021/09/12 08:54:55;;;;;;;42.55;25.40;;;22.20;99.90;;;22.68;72.74;101748.56;5116600;28;20442;-70
2021/09/12 08:57:23;;;;;;;38.70;25.35;;;22.20;99.90;;;22.60;73.20;101753.38;5116842;28;20396;-70
2021/09/12 08:59:52;;;;;;;44.13;25.70;;;22.20;99.90;;;22.57;73.03;101746.28;5116515;28;20106;-75
2021/09/12 09:02:26;;;;;;;38.88;24.73;;;22.20;99.90;;;22.64;73.15;101755.00;5116507;28;20501;-78
2021/09/12 09:05:06;;;;;;;41.97;26.73;;;22.30;99.90;;;22.66;73.26;101750.44;5115765;28;20404;-68
2021/09/12 09:07:36;;;;;;;39.47;26.67;;;22.30;99.90;;;22.58;73.39;101752.53;5098064;28;20403;-68
2021/09/12 09:10:19;;;;;;;40.67;25.40;;;22.20;99.90;;;22.68;73.68;101757.53;5098018;28;20136;-68
2021/09/12 09:12:49;;;;;;;40.42;25.58;;;22.30;99.90;;;22.78;73.74;101753.53;5116221;28;20052;-67
2021/09/12 09:15:21;;;;;;;37.42;25.00;;;22.40;99.90;;;22.86;73.45;101748.66;5116024;28;20123;-68
2021/09/12 09:17:51;;;;;;;32.80;24.23;;;22.50;99.90;;;22.88;72.60;101744.09;5116029;28;20100;-68
2021/09/12 09:20:20;;;;;;;;;;;22.50;99.90;;;22.89;72.57;101726.97;5116462;28;20070;-68
2021/09/12 09:22:52;;;;;;;37.95;23.38;;;22.70;99.90;;;23.24;72.70;101752.47;5115566;28;19955;-80
2021/09/12 09:25:23;;;;;;;31.85;22.42;;;22.80;99.90;;;23.43;72.03;101745.38;5116228;28;20050;-75
2021/09/12 09:28:06;;;;;;;32.75;20.95;;;23.00;99.90;;;23.62;72.02;101749.03;5116083;28;20105;-75
2021/09/12 09:30:38;;;;;;;28.77;20.10;;;23.20;99.90;;;23.88;71.09;101751.44;5116007;28;20036;-83
2021/09/12 09:33:20;;;;;;;25.17;18.17;;;23.50;99.90;;;24.13;69.87;101754.81;5115733;28;20043;-85
2021/09/12 09:36:01;;;;;;;30.65;18.88;;;23.70;99.90;;;24.28;68.94;101753.22;5115861;28;20453;-74
2021/09/12 09:38:34;;;;;;;24.40;19.15;;;23.90;99.90;;;24.29;68.48;101741.47;5115858;28;20047;-82
2021/09/12 09:41:10;;;;;;;28.38;18.67;;;24.00;99.90;;;24.36;68.19;101755.56;5115556;28;20488;-82
2021/09/12 09:43:45;;;;;;;23.98;15.65;;;24.10;99.90;;;24.40;68.18;101749.06;5115866;28;20043;-73
2021/09/12 09:46:32;;;;;;;18.23;13.60;;;24.00;99.90;;;24.28;66.52;101744.22;5115456;28;20489;-75
2021/09/12 09:49:20;;;;;;;18.08;12.80;;;24.00;99.90;;;24.43;66.97;101751.63;5115589;28;20040;-76
2021/09/12 09:51:51;;;;;;;16.08;11.25;;;24.10;99.90;;;24.40;66.43;101755.34;5097367;28;20431;-77
2021/09/12 09:54:22;;;;;;;12.38;8.05;;;24.10;99.90;;;24.27;65.87;101753.28;5115692;28;20085;-76
2021/09/12 09:56:51;;;;;;;8.57;6.38;;;24.00;99.90;;;24.01;66.12;101760.75;5115512;28;20070;-75
2021/09/12 09:59:21;;;;;;;7.72;5.57;;;23.70;99.90;;;23.68;66.31;101731.66;5115322;28;20101;-75
2021/09/12 10:01:52;;;;;;;6.45;5.28;;;23.60;99.90;;;23.66;66.89;101753.34;5115361;28;20043;-74
2021/09/12 10:04:23;;;;;;;9.43;5.40;;;23.50;99.90;;;23.54;67.33;101732.25;5115230;28;20126;-72
2021/09/12 10:06:52;;;;;;;5.15;4.65;;;23.40;99.90;;;23.12;67.76;101745.78;5114913;28;20063;-72
2021/09/12 10:09:22;;;;;;;5.47;4.22;;;23.00;99.90;;;23.22;68.12;101755.25;5096774;28;20143;-67
2021/09/12 10:11:54;;;;;;;5.30;4.72;;;22.90;99.90;;;23.31;67.94;101756.69;5114985;28;20116;-72